Terminal Aerodrome Forecast
Issued by NWS Portland, OR

Home | Current Version | Previous Version | Text Only | Print | Product List | Glossary On
Versions: 1 2 3 4 5 6 7 8 9 10 11 12 13 14 15 16 17 18 19 20 21 22 23 24 25 26 27 28 29 30 31 32 33 34 35 36 37 38 39 40
000
FTUS46 KPQR 101826 AAA
TAFTTD
TAF AMD
KTTD 101826Z 1018/1118 09012KT P6SM SCT008 BKN060
     FM102100 10010KT P6SM -RA SCT010 BKN025 OVC040
     FM110400 15007KT P6SM -RA BKN025 OVC040
     FM110600 19009KT P6SM -SHRA BKN025 OVC040=

USA.gov is the U.S. government's official web portal to all federal, state and local government web resources and services.